sensor_id;sensor_type;location;lat;lon;timestamp;pressure;altitude;pressure_sealevel;temperature;humidity
37206;BME280;23099;42.636;23.198;2023-02-20T00:02:16;92338.38;;;7.93;68.96
37206;BME280;23099;42.636;23.198;2023-02-20T00:04:42;92347.13;;;7.93;68.52
37206;BME280;23099;42.636;23.198;2023-02-20T00:07:09;92355.09;;;7.93;69.90
37206;BME280;23099;42.636;23.198;2023-02-20T00:09:36;92346.75;;;8.07;69.45
37206;BME280;23099;42.636;23.198;2023-02-20T00:12:02;92345.84;;;8.15;68.24
37206;BME280;23099;42.636;23.198;2023-02-20T00:14:30;92351.41;;;8.22;68.28
37206;BME280;23099;42.636;23.198;2023-02-20T00:16:57;92353.63;;;8.08;68.19
37206;BME280;23099;42.636;23.198;2023-02-20T00:19:24;92349.88;;;7.85;69.31
37206;BME280;23099;42.636;23.198;2023-02-20T00:21:50;92359.56;;;7.77;71.43
37206;BME280;23099;42.636;23.198;2023-02-20T00:24:19;92351.66;;;7.80;71.41
37206;BME280;23099;42.636;23.198;2023-02-20T00:26:46;92338.28;;;7.77;71.46
37206;BME280;23099;42.636;23.198;2023-02-20T00:29:14;92335.47;;;7.86;71.58
37206;BME280;23099;42.636;23.198;2023-02-20T00:31:42;92339.56;;;7.83;71.42
37206;BME280;23099;42.636;23.198;2023-02-20T00:34:09;92338.38;;;7.68;71.94
37206;BME280;23099;42.636;23.198;2023-02-20T00:36:36;92349.13;;;7.72;71.90
37206;BME280;23099;42.636;23.198;2023-02-20T00:39:02;92343.03;;;7.71;71.93
37206;BME280;23099;42.636;23.198;2023-02-20T00:41:29;92336.72;;;7.64;72.22
37206;BME280;23099;42.636;23.198;2023-02-20T00:43:56;92324.41;;;7.59;72.75
37206;BME280;23099;42.636;23.198;2023-02-20T00:46:22;92333.38;;;7.55;73.01
37206;BME280;23099;42.636;23.198;2023-02-20T00:48:50;92325.53;;;7.46;73.05
37206;BME280;23099;42.636;23.198;2023-02-20T00:51:17;92313.34;;;7.33;73.32
37206;BME280;23099;42.636;23.198;2023-02-20T00:53:44;92337.59;;;7.31;73.08
37206;BME280;23099;42.636;23.198;2023-02-20T00:56:11;92349.47;;;7.34;72.61
37206;BME280;23099;42.636;23.198;2023-02-20T00:58:37;92368.72;;;7.43;72.39
37206;BME280;23099;42.636;23.198;2023-02-20T01:01:04;92368.19;;;7.50;71.27
37206;BME280;23099;42.636;23.198;2023-02-20T01:03:31;92365.88;;;7.48;70.52
37206;BME280;23099;42.636;23.198;2023-02-20T01:05:59;92359.97;;;7.42;71.59
37206;BME280;23099;42.636;23.198;2023-02-20T01:08:26;92375.03;;;7.38;72.19
37206;BME280;23099;42.636;23.198;2023-02-20T01:10:53;92367.19;;;7.42;72.64
37206;BME280;23099;42.636;23.198;2023-02-20T01:13:19;92380.47;;;7.54;72.56
37206;BME280;23099;42.636;23.198;2023-02-20T01:15:46;92375.16;;;7.66;72.98
37206;BME280;23099;42.636;23.198;2023-02-20T01:18:13;92384.38;;;7.69;73.11
37206;BME280;23099;42.636;23.198;2023-02-20T01:20:40;92377.16;;;7.69;73.00
37206;BME280;23099;42.636;23.198;2023-02-20T01:23:08;92379.81;;;7.69;73.08
37206;BME280;23099;42.636;23.198;2023-02-20T01:25:35;92371.97;;;7.73;73.67
37206;BME280;23099;42.636;23.198;2023-02-20T01:28:01;92363.31;;;7.76;73.63
37206;BME280;23099;42.636;23.198;2023-02-20T01:30:28;92360.75;;;7.79;73.71
37206;BME280;23099;42.636;23.198;2023-02-20T01:32:55;92348.44;;;7.87;73.13
37206;BME280;23099;42.636;23.198;2023-02-20T01:35:22;92352.19;;;7.98;73.53
37206;BME280;23099;42.636;23.198;2023-02-20T01:37:49;92356.09;;;8.01;76.32
37206;BME280;23099;42.636;23.198;2023-02-20T01:40:19;92356.31;;;7.96;81.18
37206;BME280;23099;42.636;23.198;2023-02-20T01:42:47;92369.53;;;7.92;84.72
37206;BME280;23099;42.636;23.198;2023-02-20T01:45:17;92378.50;;;7.75;86.55
37206;BME280;23099;42.636;23.198;2023-02-20T01:47:45;92380.41;;;7.63;82.62
37206;BME280;23099;42.636;23.198;2023-02-20T01:50:13;92381.50;;;7.62;81.85
37206;BME280;23099;42.636;23.198;2023-02-20T01:52:42;92396.78;;;7.65;85.16
37206;BME280;23099;42.636;23.198;2023-02-20T01:55:13;92379.25;;;7.52;80.41
37206;BME280;23099;42.636;23.198;2023-02-20T01:57:47;92393.44;;;7.56;81.42
37206;BME280;23099;42.636;23.198;2023-02-20T02:00:19;92401.63;;;7.51;80.45
37206;BME280;23099;42.636;23.198;2023-02-20T02:02:49;92400.19;;;7.53;82.34
37206;BME280;23099;42.636;23.198;2023-02-20T02:05:17;92409.84;;;7.58;82.12
37206;BME280;23099;42.636;23.198;2023-02-20T02:07:44;92398.31;;;7.54;82.59
37206;BME280;23099;42.636;23.198;2023-02-20T02:10:13;92416.84;;;7.50;82.06
37206;BME280;23099;42.636;23.198;2023-02-20T02:12:45;92391.09;;;7.30;79.73
37206;BME280;23099;42.636;23.198;2023-02-20T02:15:14;92415.47;;;7.20;79.85
37206;BME280;23099;42.636;23.198;2023-02-20T02:17:50;92416.34;;;7.24;79.60
37206;BME280;23099;42.636;23.198;2023-02-20T02:26:39;92415.22;;;7.25;80.16
37206;BME280;23099;42.636;23.198;2023-02-20T02:29:29;92430.69;;;7.10;80.80
37206;BME280;23099;42.636;23.198;2023-02-20T02:35:26;92449.91;;;6.95;78.92
37206;BME280;23099;42.636;23.198;2023-02-20T02:38:03;92444.59;;;6.95;79.81
37206;BME280;23099;42.636;23.198;2023-02-20T02:40:40;92452.47;;;6.92;78.18
37206;BME280;23099;42.636;23.198;2023-02-20T02:43:12;92464.50;;;6.89;77.02
37206;BME280;23099;42.636;23.198;2023-02-20T02:45:50;92452.00;;;6.90;76.91
37206;BME280;23099;42.636;23.198;2023-02-20T02:48:27;92436.38;;;6.88;77.10
37206;BME280;23099;42.636;23.198;2023-02-20T02:51:01;92446.69;;;6.90;76.01
37206;BME280;23099;42.636;23.198;2023-02-20T02:53:30;92452.19;;;6.85;76.66
37206;BME280;23099;42.636;23.198;2023-02-20T02:55:57;92450.41;;;6.77;76.81
37206;BME280;23099;42.636;23.198;2023-02-20T02:58:43;92441.53;;;6.72;77.63
37206;BME280;23099;42.636;23.198;2023-02-20T03:01:10;92453.69;;;6.73;77.93
37206;BME280;23099;42.636;23.198;2023-02-20T03:03:40;92455.56;;;6.73;77.37
37206;BME280;23099;42.636;23.198;2023-02-20T03:06:13;92444.50;;;6.71;77.65
37206;BME280;23099;42.636;23.198;2023-02-20T03:08:47;92466.16;;;6.61;77.71
37206;BME280;23099;42.636;23.198;2023-02-20T03:11:22;92450.59;;;6.71;77.27
37206;BME280;23099;42.636;23.198;2023-02-20T03:13:51;92453.44;;;6.66;77.72
37206;BME280;23099;42.636;23.198;2023-02-20T03:16:40;92443.34;;;6.60;78.41
37206;BME280;23099;42.636;23.198;2023-02-20T03:19:11;92455.19;;;6.62;77.26
37206;BME280;23099;42.636;23.198;2023-02-20T03:21:41;92449.94;;;6.54;77.45
37206;BME280;23099;42.636;23.198;2023-02-20T03:24:12;92469.56;;;6.61;77.46
37206;BME280;23099;42.636;23.198;2023-02-20T03:26:40;92488.28;;;6.65;76.97
37206;BME280;23099;42.636;23.198;2023-02-20T03:29:09;92483.88;;;6.69;77.35
37206;BME280;23099;42.636;23.198;2023-02-20T03:31:40;92492.50;;;6.66;77.05
37206;BME280;23099;42.636;23.198;2023-02-20T03:34:13;92490.63;;;6.46;77.56
37206;BME280;23099;42.636;23.198;2023-02-20T03:37:01;92495.19;;;6.36;77.97
37206;BME280;23099;42.636;23.198;2023-02-20T03:39:50;92491.81;;;6.27;76.23
37206;BME280;23099;42.636;23.198;2023-02-20T03:42:39;92477.63;;;6.23;77.17
37206;BME280;23099;42.636;23.198;2023-02-20T03:45:25;92493.13;;;6.13;77.27
37206;BME280;23099;42.636;23.198;2023-02-20T03:47:58;92498.28;;;6.18;76.69
37206;BME280;23099;42.636;23.198;2023-02-20T03:50:26;92495.00;;;6.12;77.65
37206;BME280;23099;42.636;23.198;2023-02-20T03:53:10;92503.50;;;5.97;77.51
37206;BME280;23099;42.636;23.198;2023-02-20T03:55:39;92490.97;;;6.06;77.71
37206;BME280;23099;42.636;23.198;2023-02-20T03:58:08;92486.91;;;6.09;77.26
37206;BME280;23099;42.636;23.198;2023-02-20T04:00:40;92486.59;;;6.10;76.83
37206;BME280;23099;42.636;23.198;2023-02-20T04:03:13;92489.56;;;6.09;76.85
37206;BME280;23099;42.636;23.198;2023-02-20T04:05:43;92482.75;;;5.99;77.34
37206;BME280;23099;42.636;23.198;2023-02-20T04:08:14;92497.22;;;6.10;78.83
37206;BME280;23099;42.636;23.198;2023-02-20T04:10:48;92496.25;;;6.15;79.38
37206;BME280;23099;42.636;23.198;2023-02-20T04:13:18;92489.94;;;6.28;78.66
37206;BME280;23099;42.636;23.198;2023-02-20T04:15:45;92505.81;;;6.36;78.87
37206;BME280;23099;42.636;23.198;2023-02-20T04:18:14;92496.56;;;6.43;76.86
37206;BME280;23099;42.636;23.198;2023-02-20T04:20:42;92500.72;;;6.52;77.97
37206;BME280;23099;42.636;23.198;2023-02-20T04:23:13;92500.06;;;6.55;76.68
37206;BME280;23099;42.636;23.198;2023-02-20T04:25:45;92493.13;;;6.42;77.13
37206;BME280;23099;42.636;23.198;2023-02-20T04:28:14;92493.59;;;6.44;75.52
37206;BME280;23099;42.636;23.198;2023-02-20T04:30:41;92483.16;;;6.39;75.38
37206;BME280;23099;42.636;23.198;2023-02-20T04:33:09;92486.78;;;6.34;76.24
37206;BME280;23099;42.636;23.198;2023-02-20T04:35:36;92495.56;;;6.26;76.61
37206;BME280;23099;42.636;23.198;2023-02-20T04:38:03;92514.47;;;6.25;75.53
37206;BME280;23099;42.636;23.198;2023-02-20T04:40:29;92527.50;;;6.38;76.60
37206;BME280;23099;42.636;23.198;2023-02-20T04:42:58;92536.84;;;6.45;77.29
37206;BME280;23099;42.636;23.198;2023-02-20T04:45:24;92523.75;;;6.39;77.51
37206;BME280;23099;42.636;23.198;2023-02-20T04:47:51;92523.34;;;6.29;76.41
37206;BME280;23099;42.636;23.198;2023-02-20T04:50:20;92537.22;;;6.34;76.15
37206;BME280;23099;42.636;23.198;2023-02-20T04:52:47;92524.53;;;6.40;76.26
37206;BME280;23099;42.636;23.198;2023-02-20T04:55:14;92537.06;;;6.31;75.12
37206;BME280;23099;42.636;23.198;2023-02-20T04:57:41;92528.03;;;6.32;75.51
37206;BME280;23099;42.636;23.198;2023-02-20T05:00:10;92542.25;;;6.27;76.15
37206;BME280;23099;42.636;23.198;2023-02-20T05:02:38;92537.06;;;6.31;76.33
37206;BME280;23099;42.636;23.198;2023-02-20T05:05:06;92558.00;;;6.32;76.03
37206;BME280;23099;42.636;23.198;2023-02-20T05:07:33;92556.25;;;6.36;76.03
37206;BME280;23099;42.636;23.198;2023-02-20T05:10:00;92557.69;;;6.34;75.96
37206;BME280;23099;42.636;23.198;2023-02-20T05:12:26;92547.41;;;6.24;72.66
37206;BME280;23099;42.636;23.198;2023-02-20T05:14:53;92561.28;;;5.83;73.48
37206;BME280;23099;42.636;23.198;2023-02-20T05:17:21;92569.25;;;5.65;72.77
37206;BME280;23099;42.636;23.198;2023-02-20T05:19:48;92561.63;;;5.64;73.71
37206;BME280;23099;42.636;23.198;2023-02-20T05:22:14;92555.72;;;5.50;73.39
37206;BME280;23099;42.636;23.198;2023-02-20T05:24:43;92557.59;;;5.49;74.12
37206;BME280;23099;42.636;23.198;2023-02-20T05:27:10;92554.03;;;5.45;73.72
37206;BME280;23099;42.636;23.198;2023-02-20T05:29:36;92546.88;;;5.37;74.17
37206;BME280;23099;42.636;23.198;2023-02-20T05:32:03;92551.22;;;5.42;74.69
37206;BME280;23099;42.636;23.198;2023-02-20T05:34:31;92546.88;;;5.37;74.09
37206;BME280;23099;42.636;23.198;2023-02-20T05:36:58;92561.97;;;5.37;74.96
37206;BME280;23099;42.636;23.198;2023-02-20T05:39:24;92569.94;;;5.45;75.62
37206;BME280;23099;42.636;23.198;2023-02-20T05:41:51;92580.84;;;5.52;73.82
37206;BME280;23099;42.636;23.198;2023-02-20T05:44:18;92575.03;;;5.67;74.63
37206;BME280;23099;42.636;23.198;2023-02-20T05:46:45;92568.63;;;5.68;73.71
37206;BME280;23099;42.636;23.198;2023-02-20T05:49:11;92584.06;;;5.84;73.63
37206;BME280;23099;42.636;23.198;2023-02-20T05:51:39;92584.97;;;5.88;73.53
37206;BME280;23099;42.636;23.198;2023-02-20T05:54:06;92597.16;;;5.80;74.01
37206;BME280;23099;42.636;23.198;2023-02-20T05:56:33;92602.97;;;5.74;74.17
37206;BME280;23099;42.636;23.198;2023-02-20T05:59:00;92599.88;;;5.54;75.81
37206;BME280;23099;42.636;23.198;2023-02-20T06:01:28;92592.84;;;5.50;77.00
37206;BME280;23099;42.636;23.198;2023-02-20T06:03:56;92593.78;;;5.54;76.31
37206;BME280;23099;42.636;23.198;2023-02-20T06:06:23;92591.59;;;5.56;76.58
37206;BME280;23099;42.636;23.198;2023-02-20T06:08:51;92595.50;;;5.58;77.00
37206;BME280;23099;42.636;23.198;2023-02-20T06:11:17;92597.66;;;5.65;76.22
37206;BME280;23099;42.636;23.198;2023-02-20T06:13:44;92605.47;;;5.70;76.15
37206;BME280;23099;42.636;23.198;2023-02-20T06:16:12;92626.53;;;5.75;76.20
37206;BME280;23099;42.636;23.198;2023-02-20T06:18:39;92607.66;;;5.77;76.14
37206;BME280;23099;42.636;23.198;2023-02-20T06:21:07;92609.00;;;5.83;76.51
37206;BME280;23099;42.636;23.198;2023-02-20T06:23:35;92601.84;;;5.92;76.04
37206;BME280;23099;42.636;23.198;2023-02-20T06:26:03;92613.06;;;5.97;75.76
37206;BME280;23099;42.636;23.198;2023-02-20T06:28:30;92610.25;;;6.02;75.38
37206;BME280;23099;42.636;23.198;2023-02-20T06:30:57;92619.59;;;6.09;75.58
37206;BME280;23099;42.636;23.198;2023-02-20T06:33:23;92606.16;;;6.14;75.30
37206;BME280;23099;42.636;23.198;2023-02-20T06:35:50;92619.75;;;6.12;75.17
37206;BME280;23099;42.636;23.198;2023-02-20T06:38:17;92622.22;;;6.17;74.45
37206;BME280;23099;42.636;23.198;2023-02-20T06:40:43;92609.69;;;6.26;74.48
37206;BME280;23099;42.636;23.198;2023-02-20T06:43:11;92642.94;;;6.32;72.54
37206;BME280;23099;42.636;23.198;2023-02-20T06:45:44;92631.56;;;6.32;73.00
37206;BME280;23099;42.636;23.198;2023-02-20T06:48:11;92642.66;;;6.25;73.33
37206;BME280;23099;42.636;23.198;2023-02-20T06:50:39;92644.25;;;6.18;73.30
37206;BME280;23099;42.636;23.198;2023-02-20T06:53:06;92632.69;;;6.14;72.88
37206;BME280;23099;42.636;23.198;2023-02-20T06:55:33;92650.19;;;6.06;72.14
37206;BME280;23099;42.636;23.198;2023-02-20T06:58:01;92653.81;;;6.01;72.40
37206;BME280;23099;42.636;23.198;2023-02-20T07:00:29;92644.59;;;5.99;72.07
37206;BME280;23099;42.636;23.198;2023-02-20T07:02:56;92653.81;;;5.93;73.59
37206;BME280;23099;42.636;23.198;2023-02-20T07:05:23;92641.63;;;5.92;72.27
37206;BME280;23099;42.636;23.198;2023-02-20T07:07:49;92648.19;;;5.94;73.42
37206;BME280;23099;42.636;23.198;2023-02-20T07:10:16;92656.63;;;5.96;71.92
37206;BME280;23099;42.636;23.198;2023-02-20T07:12:43;92660.47;;;6.08;72.27
37206;BME280;23099;42.636;23.198;2023-02-20T07:15:10;92645.97;;;6.14;70.40
37206;BME280;23099;42.636;23.198;2023-02-20T07:17:38;92668.28;;;6.13;70.15
37206;BME280;23099;42.636;23.198;2023-02-20T07:20:05;92657.81;;;6.16;70.23
37206;BME280;23099;42.636;23.198;2023-02-20T07:22:32;92669.97;;;6.26;68.67
37206;BME280;23099;42.636;23.198;2023-02-20T07:24:59;92670.09;;;6.38;67.79
37206;BME280;23099;42.636;23.198;2023-02-20T07:27:25;92677.38;;;6.50;66.33
37206;BME280;23099;42.636;23.198;2023-02-20T07:29:52;92681.91;;;6.58;64.41
37206;BME280;23099;42.636;23.198;2023-02-20T07:32:19;92669.81;;;6.69;66.30
37206;BME280;23099;42.636;23.198;2023-02-20T07:34:49;92679.81;;;6.72;62.46
37206;BME280;23099;42.636;23.198;2023-02-20T07:37:15;92683.97;;;6.82;63.79
37206;BME280;23099;42.636;23.198;2023-02-20T07:39:42;92674.69;;;6.96;64.94
37206;BME280;23099;42.636;23.198;2023-02-20T07:42:09;92681.16;;;6.87;60.57
37206;BME280;23099;42.636;23.198;2023-02-20T07:44:35;92676.75;;;6.91;60.96
37206;BME280;23099;42.636;23.198;2023-02-20T07:47:02;92672.44;;;7.07;60.29
37206;BME280;23099;42.636;23.198;2023-02-20T07:49:29;92676.31;;;7.09;60.78
37206;BME280;23099;42.636;23.198;2023-02-20T07:51:57;92676.53;;;7.25;60.60
37206;BME280;23099;42.636;23.198;2023-02-20T07:54:24;92665.03;;;7.42;56.85
37206;BME280;23099;42.636;23.198;2023-02-20T07:56:52;92686.56;;;7.70;55.85
37206;BME280;23099;42.636;23.198;2023-02-20T07:59:19;92686.91;;;8.01;52.58
37206;BME280;23099;42.636;23.198;2023-02-20T08:01:46;92680.91;;;7.92;50.81
37206;BME280;23099;42.636;23.198;2023-02-20T08:04:13;92672.19;;;8.04;50.29
37206;BME280;23099;42.636;23.198;2023-02-20T08:06:40;92677.56;;;8.28;50.31
37206;BME280;23099;42.636;23.198;2023-02-20T08:09:08;92693.69;;;8.77;51.18
37206;BME280;23099;42.636;23.198;2023-02-20T08:11:35;92678.16;;;9.15;49.15
37206;BME280;23099;42.636;23.198;2023-02-20T08:14:04;92669.19;;;9.60;48.82
37206;BME280;23099;42.636;23.198;2023-02-20T08:16:30;92688.16;;;9.83;46.38
37206;BME280;23099;42.636;23.198;2023-02-20T08:18:58;92685.63;;;9.74;46.91
37206;BME280;23099;42.636;23.198;2023-02-20T08:21:25;92688.84;;;9.80;48.61
37206;BME280;23099;42.636;23.198;2023-02-20T08:23:51;92689.81;;;9.23;46.75
37206;BME280;23099;42.636;23.198;2023-02-20T08:26:20;92691.00;;;9.50;45.43
37206;BME280;23099;42.636;23.198;2023-02-20T08:28:47;92718.22;;;9.55;45.92
37206;BME280;23099;42.636;23.198;2023-02-20T08:31:15;92693.00;;;9.65;45.78
37206;BME280;23099;42.636;23.198;2023-02-20T08:33:42;92679.63;;;9.77;45.54
37206;BME280;23099;42.636;23.198;2023-02-20T08:36:08;92706.19;;;9.74;44.24
37206;BME280;23099;42.636;23.198;2023-02-20T08:38:36;92700.78;;;9.98;45.88
37206;BME280;23099;42.636;23.198;2023-02-20T08:41:04;92696.72;;;10.44;42.68
37206;BME280;23099;42.636;23.198;2023-02-20T08:43:33;92694.28;;;10.39;42.78
37206;BME280;23099;42.636;23.198;2023-02-20T08:46:01;92698.41;;;10.21;43.13
37206;BME280;23099;42.636;23.198;2023-02-20T08:48:27;92694.88;;;10.60;42.84
37206;BME280;23099;42.636;23.198;2023-02-20T08:50:54;92673.25;;;10.81;41.56
37206;BME280;23099;42.636;23.198;2023-02-20T08:53:21;92682.72;;;11.10;41.79
37206;BME280;23099;42.636;23.198;2023-02-20T08:55:48;92682.59;;;10.44;42.75
37206;BME280;23099;42.636;23.198;2023-02-20T08:58:18;92693.16;;;9.84;43.61
37206;BME280;23099;42.636;23.198;2023-02-20T09:00:46;92692.53;;;10.03;43.92
37206;BME280;23099;42.636;23.198;2023-02-20T09:03:12;92674.41;;;10.37;42.71
37206;BME280;23099;42.636;23.198;2023-02-20T09:05:39;92684.03;;;10.41;43.07
37206;BME280;23099;42.636;23.198;2023-02-20T09:08:06;92664.59;;;10.56;42.42
37206;BME280;23099;42.636;23.198;2023-02-20T09:10:32;92688.56;;;10.69;42.16
37206;BME280;23099;42.636;23.198;2023-02-20T09:12:59;92649.19;;;9.94;42.77
37206;BME280;23099;42.636;23.198;2023-02-20T09:15:26;92691.63;;;9.71;45.15
37206;BME280;23099;42.636;23.198;2023-02-20T09:17:56;92664.81;;;9.68;44.63
37206;BME280;23099;42.636;23.198;2023-02-20T09:20:22;92667.91;;;10.22;44.76
37206;BME280;23099;42.636;23.198;2023-02-20T09:22:49;92649.66;;;10.40;43.72
37206;BME280;23099;42.636;23.198;2023-02-20T09:25:17;92665.34;;;10.41;42.99
37206;BME280;23099;42.636;23.198;2023-02-20T09:27:44;92683.81;;;10.46;43.82
37206;BME280;23099;42.636;23.198;2023-02-20T09:30:14;92667.69;;;10.58;42.96
37206;BME280;23099;42.636;23.198;2023-02-20T09:32:43;92671.06;;;10.55;43.32
37206;BME280;23099;42.636;23.198;2023-02-20T09:35:16;92661.44;;;10.67;43.31
37206;BME280;23099;42.636;23.198;2023-02-20T09:37:43;92666.59;;;10.59;43.84
37206;BME280;23099;42.636;23.198;2023-02-20T09:40:11;92650.22;;;10.77;43.03
37206;BME280;23099;42.636;23.198;2023-02-20T09:42:43;92651.00;;;10.77;42.61
37206;BME280;23099;42.636;23.198;2023-02-20T09:45:15;92658.03;;;11.01;41.87
37206;BME280;23099;42.636;23.198;2023-02-20T09:47:55;92642.22;;;11.27;41.67
37206;BME280;23099;42.636;23.198;2023-02-20T09:50:32;92644.03;;;11.39;40.95
37206;BME280;23099;42.636;23.198;2023-02-20T09:53:05;92652.84;;;11.59;39.85
37206;BME280;23099;42.636;23.198;2023-02-20T09:55:35;92642.00;;;11.52;39.31
37206;BME280;23099;42.636;23.198;2023-02-20T09:58:05;92653.56;;;11.40;39.17
37206;BME280;23099;42.636;23.198;2023-02-20T10:00:34;92657.66;;;11.34;38.71
37206;BME280;23099;42.636;23.198;2023-02-20T10:03:13;92643.47;;;10.98;39.66
37206;BME280;23099;42.636;23.198;2023-02-20T10:05:43;92641.09;;;11.28;39.38
37206;BME280;23099;42.636;23.198;2023-02-20T10:08:10;92644.34;;;11.73;37.43
37206;BME280;23099;42.636;23.198;2023-02-20T10:10:40;92645.72;;;12.01;36.59
37206;BME280;23099;42.636;23.198;2023-02-20T10:13:15;92642.19;;;12.36;36.09
37206;BME280;23099;42.636;23.198;2023-02-20T10:15:54;92635.06;;;11.86;35.82
37206;BME280;23099;42.636;23.198;2023-02-20T10:18:33;92639.50;;;11.97;36.38
37206;BME280;23099;42.636;23.198;2023-02-20T10:21:11;92648.31;;;12.36;35.93
37206;BME280;23099;42.636;23.198;2023-02-20T10:23:46;92634.22;;;12.62;34.95
37206;BME280;23099;42.636;23.198;2023-02-20T10:26:17;92658.31;;;12.82;34.43
37206;BME280;23099;42.636;23.198;2023-02-20T10:28:47;92635.72;;;12.83;34.57
37206;BME280;23099;42.636;23.198;2023-02-20T10:31:24;92615.50;;;12.66;33.27
37206;BME280;23099;42.636;23.198;2023-02-20T10:33:58;92631.28;;;12.48;33.24
37206;BME280;23099;42.636;23.198;2023-02-20T10:36:32;92627.06;;;12.47;31.38
37206;BME280;23099;42.636;23.198;2023-02-20T10:39:04;92616.81;;;12.75;32.66
37206;BME280;23099;42.636;23.198;2023-02-20T10:41:37;92616.31;;;13.16;31.76
37206;BME280;23099;42.636;23.198;2023-02-20T10:44:14;92610.66;;;13.47;32.22
37206;BME280;23099;42.636;23.198;2023-02-20T10:46:47;92601.47;;;13.78;32.31
37206;BME280;23099;42.636;23.198;2023-02-20T10:49:20;92607.31;;;13.84;30.47
37206;BME280;23099;42.636;23.198;2023-02-20T10:51:55;92616.94;;;13.58;32.06
37206;BME280;23099;42.636;23.198;2023-02-20T10:54:30;92603.78;;;13.50;31.77
37206;BME280;23099;42.636;23.198;2023-02-20T10:57:04;92593.13;;;13.27;34.36
37206;BME280;23099;42.636;23.198;2023-02-20T10:59:37;92591.94;;;13.01;34.68
37206;BME280;23099;42.636;23.198;2023-02-20T11:02:14;92612.41;;;13.13;34.68
37206;BME280;23099;42.636;23.198;2023-02-20T11:04:47;92608.59;;;13.14;34.37
37206;BME280;23099;42.636;23.198;2023-02-20T11:07:17;92598.19;;;13.62;33.78
37206;BME280;23099;42.636;23.198;2023-02-20T11:09:46;92597.44;;;13.95;32.55
37206;BME280;23099;42.636;23.198;2023-02-20T11:12:20;92593.25;;;13.97;34.05
37206;BME280;23099;42.636;23.198;2023-02-20T11:14:50;92593.28;;;14.34;32.54
37206;BME280;23099;42.636;23.198;2023-02-20T11:17:20;92604.22;;;13.85;34.80
37206;BME280;23099;42.636;23.198;2023-02-20T11:19:51;92584.53;;;14.07;33.28
37206;BME280;23099;42.636;23.198;2023-02-20T11:22:38;92601.47;;;13.78;34.06
37206;BME280;23099;42.636;23.198;2023-02-20T11:25:16;92567.41;;;14.23;32.77
37206;BME280;23099;42.636;23.198;2023-02-20T11:27:44;92577.19;;;14.78;31.74
37206;BME280;23099;42.636;23.198;2023-02-20T11:30:23;92591.13;;;14.91;32.61
37206;BME280;23099;42.636;23.198;2023-02-20T11:33:03;92574.84;;;14.36;32.20
37206;BME280;23099;42.636;23.198;2023-02-20T11:35:33;92557.41;;;14.57;31.31
37206;BME280;23099;42.636;23.198;2023-02-20T11:38:35;92554.91;;;14.81;31.45
37206;BME280;23099;42.636;23.198;2023-02-20T11:41:16;92567.75;;;15.02;31.21
37206;BME280;23099;42.636;23.198;2023-02-20T11:44:03;92567.66;;;14.88;31.73
37206;BME280;23099;42.636;23.198;2023-02-20T11:46:30;92563.38;;;14.80;32.54
37206;BME280;23099;42.636;23.198;2023-02-20T11:48:59;92565.00;;;14.92;31.18
37206;BME280;23099;42.636;23.198;2023-02-20T11:51:35;92573.72;;;15.29;31.45
37206;BME280;23099;42.636;23.198;2023-02-20T11:54:17;92582.25;;;14.83;30.78
37206;BME280;23099;42.636;23.198;2023-02-20T11:56:58;92565.94;;;14.66;30.95
37206;BME280;23099;42.636;23.198;2023-02-20T11:59:29;92572.91;;;14.70;32.50
37206;BME280;23099;42.636;23.198;2023-02-20T12:02:11;92579.88;;;14.04;31.74
37206;BME280;23099;42.636;23.198;2023-02-20T12:04:38;92576.16;;;14.49;31.58
37206;BME280;23099;42.636;23.198;2023-02-20T12:07:17;92574.72;;;14.22;31.57
37206;BME280;23099;42.636;23.198;2023-02-20T12:09:50;92558.06;;;14.91;31.46
37206;BME280;23099;42.636;23.198;2023-02-20T12:12:18;92559.91;;;15.34;31.47
37206;BME280;23099;42.636;23.198;2023-02-20T12:14:48;92562.81;;;15.08;29.78
37206;BME280;23099;42.636;23.198;2023-02-20T12:17:22;92578.22;;;15.11;31.80
37206;BME280;23099;42.636;23.198;2023-02-20T12:19:55;92572.00;;;15.03;30.75
37206;BME280;23099;42.636;23.198;2023-02-20T12:22:31;92573.91;;;14.99;29.35
37206;BME280;23099;42.636;23.198;2023-02-20T12:25:17;92576.75;;;14.69;31.70
37206;BME280;23099;42.636;23.198;2023-02-20T12:27:53;92577.03;;;14.61;31.98
37206;BME280;23099;42.636;23.198;2023-02-20T12:30:34;92578.22;;;14.26;30.89
37206;BME280;23099;42.636;23.198;2023-02-20T12:33:21;92585.19;;;14.34;30.85
37206;BME280;23099;42.636;23.198;2023-02-20T12:35:56;92575.75;;;14.10;31.04
37206;BME280;23099;42.636;23.198;2023-02-20T12:38:35;92571.16;;;14.48;31.35
37206;BME280;23099;42.636;23.198;2023-02-20T12:41:19;92600.31;;;14.46;32.35
37206;BME280;23099;42.636;23.198;2023-02-20T12:43:58;92577.94;;;14.01;33.41
37206;BME280;23099;42.636;23.198;2023-02-20T12:46:33;92587.47;;;13.95;32.66
37206;BME280;23099;42.636;23.198;2023-02-20T12:49:13;92587.69;;;14.16;32.66
37206;BME280;23099;42.636;23.198;2023-02-20T12:51:50;92572.44;;;13.91;33.19
37206;BME280;23099;42.636;23.198;2023-02-20T12:54:29;92567.16;;;13.98;32.97
37206;BME280;23099;42.636;23.198;2023-02-20T12:57:06;92570.81;;;13.83;33.00
37206;BME280;23099;42.636;23.198;2023-02-20T12:59:47;92582.88;;;13.96;33.31
37206;BME280;23099;42.636;23.198;2023-02-20T13:02:23;92569.06;;;13.64;33.80
37206;BME280;23099;42.636;23.198;2023-02-20T13:04:55;92558.06;;;13.46;33.71
37206;BME280;23099;42.636;23.198;2023-02-20T13:07:26;92569.88;;;13.68;33.82
37206;BME280;23099;42.636;23.198;2023-02-20T13:09:58;92574.97;;;13.47;33.83
37206;BME280;23099;42.636;23.198;2023-02-20T13:12:29;92566.06;;;13.42;35.80
37206;BME280;23099;42.636;23.198;2023-02-20T13:15:09;92562.13;;;13.63;34.35
37206;BME280;23099;42.636;23.198;2023-02-20T13:17:41;92561.09;;;13.41;34.17
37206;BME280;23099;42.636;23.198;2023-02-20T13:20:17;92563.03;;;13.44;35.21
37206;BME280;23099;42.636;23.198;2023-02-20T13:22:57;92577.59;;;13.43;35.55
37206;BME280;23099;42.636;23.198;2023-02-20T13:25:44;92568.63;;;13.62;34.37